Rockenbach Airport

Jump to: basic info | weather | runways | comments

Related pages: nearby airports | nearby navaids | notams | map

Basic information (top)

Codes: LL97
Location: lon 42.338902, lat -88.084801, elev 800 ft / 244 m msl
Status: small_airport

Weather (top)

Current conditions for Waukegan Regional Airport 11nm (20km) ENE (rec'd 2014/04/19 21:52Z):

KUGN 192152Z 10006KT 7SM CLR 11/02 A3025 RMK AO2 SLP251 T01060022

Airport forecast for Kenosha Regional Airport 17nm (31km) NNE (rec'd 2014/04/19 18:30Z):

TAF KENW 191729Z 1918/2018 13011KT P6SM BKN250 
     FM192000 15011KT P6SM SCT250 
     FM200600 18009KT P6SM SCT250 
     FM201500 20013KT P6SM SCT150

Runways (top)

N/S: 2,000 x 100 ft (610 x 30 m) — grass — not lighted

Latest comments (top)

No comments yet for Rockenbach Airport

More... (top)

See also NOTAMs and nearby airports and navaids, or visit the Rockenbach Airport page at the main OurAirports website..